createdAt,value
2018-03-24T00:01:38.005Z,14.67
2018-03-24T00:04:11.590Z,14.03
2018-03-24T00:06:45.095Z,13.70
2018-03-24T00:09:18.793Z,13.13
2018-03-24T00:11:52.377Z,12.67
2018-03-24T00:14:26.114Z,19.57
2018-03-24T00:16:59.704Z,15.40
2018-03-24T00:19:33.382Z,15.60
2018-03-24T00:22:06.882Z,14.27
2018-03-24T00:24:40.513Z,13.50
2018-03-24T00:27:14.070Z,13.40
2018-03-24T00:29:47.642Z,11.90
2018-03-24T00:32:21.274Z,12.80
2018-03-24T00:34:54.834Z,12.07
2018-03-24T00:37:28.454Z,12.47
2018-03-24T00:40:02.105Z,12.17
2018-03-24T00:42:35.672Z,11.83
2018-03-24T00:45:09.257Z,12.43
2018-03-24T00:47:42.821Z,13.63
2018-03-24T00:50:16.474Z,12.03
2018-03-24T00:52:50.154Z,13.40
2018-03-24T00:55:23.684Z,12.73
2018-03-24T00:57:57.409Z,13.80
2018-03-24T01:00:31.011Z,13.27
2018-03-24T01:03:04.613Z,14.53
2018-03-24T01:05:38.368Z,14.20
2018-03-24T01:08:12.037Z,13.90
2018-03-24T01:10:45.641Z,14.60
2018-03-24T01:13:19.228Z,14.77
2018-03-24T01:15:53.092Z,15.00
2018-03-24T01:18:26.839Z,13.50
2018-03-24T01:21:00.545Z,14.47
2018-03-24T01:23:34.185Z,14.13
2018-03-24T01:26:07.761Z,14.23
2018-03-24T01:28:41.523Z,14.73
2018-03-24T01:31:15.077Z,14.43
2018-03-24T01:33:48.764Z,14.60
2018-03-24T01:42:20.866Z,14.00
2018-03-24T01:44:54.486Z,15.53
2018-03-24T01:47:28.173Z,13.87
2018-03-24T01:50:01.886Z,15.43
2018-03-24T01:52:35.604Z,13.90
2018-03-24T01:55:09.281Z,14.60
2018-03-24T01:57:42.955Z,15.87
2018-03-24T02:00:16.560Z,15.30
2018-03-24T02:02:50.213Z,15.47
2018-03-24T02:05:23.934Z,14.40
2018-03-24T02:07:57.614Z,15.23
2018-03-24T02:10:31.245Z,14.23
2018-03-24T02:13:04.977Z,13.97
2018-03-24T02:15:38.630Z,14.37
2018-03-24T02:18:12.249Z,14.57
2018-03-24T02:20:45.908Z,14.10
2018-03-24T02:23:19.611Z,13.97
2018-03-24T02:25:53.409Z,15.77
2018-03-24T02:28:26.885Z,15.17
2018-03-24T02:31:00.557Z,14.67
2018-03-24T02:33:34.263Z,14.03
2018-03-24T02:36:07.922Z,15.53
2018-03-24T02:38:41.586Z,14.10
2018-03-24T02:41:15.254Z,14.77
2018-03-24T02:43:48.854Z,13.97
2018-03-24T02:49:21.914Z,14.47
2018-03-24T02:51:55.524Z,14.83
2018-03-24T02:54:29.193Z,16.57
2018-03-24T02:57:02.728Z,16.80
2018-03-24T02:59:36.478Z,16.83
2018-03-24T03:02:10.050Z,15.77
2018-03-24T03:04:43.690Z,14.00
2018-03-24T03:07:17.230Z,16.70
2018-03-24T03:09:51.026Z,16.23
2018-03-24T03:12:24.711Z,15.80
2018-03-24T03:14:58.326Z,17.30
2018-03-24T03:17:31.790Z,15.83
2018-03-24T03:20:05.398Z,17.43
2018-03-24T03:22:39.075Z,17.33
2018-03-24T03:25:18.393Z,17.80
2018-03-24T03:27:51.979Z,16.30
2018-03-24T03:33:24.307Z,17.40
2018-03-24T03:35:57.990Z,17.83
2018-03-24T03:38:31.642Z,16.70
2018-03-24T03:41:05.326Z,17.30
2018-03-24T03:43:38.868Z,16.63
2018-03-24T03:46:12.487Z,16.83
2018-03-24T03:48:46.026Z,16.43
2018-03-24T03:51:19.654Z,16.13
2018-03-24T03:53:53.415Z,16.93
2018-03-24T03:56:27.023Z,16.77
2018-03-24T03:59:00.563Z,15.43
2018-03-24T04:01:34.319Z,17.10
2018-03-24T04:04:08.026Z,16.70
2018-03-24T04:06:41.699Z,17.00
2018-03-24T04:09:15.378Z,17.47
2018-03-24T04:11:49.053Z,16.93
2018-03-24T04:14:23.142Z,15.90
2018-03-24T04:16:56.736Z,17.00
2018-03-24T04:19:30.378Z,16.10
2018-03-24T04:22:04.045Z,16.17
2018-03-24T04:24:37.651Z,16.43
2018-03-24T04:30:10.403Z,14.70
2018-03-24T04:32:44.062Z,15.37
2018-03-24T04:35:17.706Z,15.97
2018-03-24T04:37:51.363Z,15.53
2018-03-24T04:40:24.983Z,16.80
2018-03-24T04:42:58.747Z,14.93
2018-03-24T04:45:32.340Z,15.63
2018-03-24T04:48:05.928Z,15.60
2018-03-24T04:50:39.614Z,16.43
2018-03-24T04:53:13.329Z,15.63
2018-03-24T04:55:46.907Z,15.67
2018-03-24T04:58:20.671Z,17.30
2018-03-24T05:00:54.471Z,16.97
2018-03-24T05:03:28.286Z,16.33
2018-03-24T05:06:01.909Z,16.43
2018-03-24T05:08:35.622Z,16.97
2018-03-24T05:11:09.718Z,16.20
2018-03-24T05:13:43.250Z,16.10
2018-03-24T05:16:16.931Z,16.10
2018-03-24T05:18:50.715Z,17.47
2018-03-24T05:21:24.286Z,16.60
2018-03-24T05:23:57.872Z,15.80
2018-03-24T05:29:31.008Z,16.13
2018-03-24T05:32:04.732Z,16.47
2018-03-24T05:34:38.412Z,16.90
2018-03-24T05:37:12.111Z,15.20
2018-03-24T05:39:45.892Z,16.20
2018-03-24T05:42:19.567Z,15.47
2018-03-24T05:44:53.154Z,16.43
2018-03-24T05:47:26.823Z,15.40
2018-03-24T05:50:00.384Z,15.53
2018-03-24T05:52:33.978Z,15.97
2018-03-24T05:55:07.887Z,16.17
2018-03-24T05:57:41.575Z,14.77
2018-03-24T06:00:15.322Z,16.13
2018-03-24T06:02:49.108Z,15.77
2018-03-24T06:05:22.802Z,16.10
2018-03-24T06:07:56.388Z,14.73
2018-03-24T06:10:30.068Z,14.07
2018-03-24T06:13:03.714Z,15.13
2018-03-24T06:15:37.382Z,14.50
2018-03-24T06:18:11.099Z,15.17
2018-03-24T06:20:44.795Z,15.23
2018-03-24T06:23:18.491Z,14.93
2018-03-24T06:25:52.035Z,14.47
2018-03-24T06:28:25.698Z,14.23
2018-03-24T06:31:02.278Z,13.90
2018-03-24T06:33:36.046Z,14.70
2018-03-24T06:36:12.246Z,13.53
2018-03-24T06:38:46.008Z,15.10
2018-03-24T06:41:19.664Z,13.83
2018-03-24T06:43:53.468Z,15.87
2018-03-24T06:46:27.066Z,13.80
2018-03-24T06:49:00.783Z,14.53
2018-03-24T06:51:34.706Z,13.40
2018-03-24T06:54:08.370Z,14.03
2018-03-24T06:56:42.047Z,12.70
2018-03-24T06:59:15.770Z,15.10
2018-03-24T07:01:49.618Z,14.60
2018-03-24T07:04:23.310Z,15.13
2018-03-24T07:06:56.931Z,13.50
2018-03-24T07:09:30.622Z,13.37
2018-03-24T07:12:04.454Z,12.50
2018-03-24T07:14:38.002Z,12.93
2018-03-24T07:23:10.262Z,12.93
2018-03-24T07:25:44.027Z,22.07
2018-03-24T07:28:17.764Z,13.97
2018-03-24T07:30:51.518Z,17.60
2018-03-24T07:33:25.232Z,15.67
2018-03-24T07:35:58.842Z,13.73
2018-03-24T07:38:32.519Z,14.23
2018-03-24T07:41:06.131Z,14.67
2018-03-24T07:43:39.912Z,15.23
2018-03-24T07:46:13.491Z,14.47
2018-03-24T07:48:47.207Z,15.23
2018-03-24T07:51:20.863Z,14.77
2018-03-24T07:53:54.578Z,16.00
2018-03-24T07:56:28.363Z,16.37
2018-03-24T07:59:02.129Z,14.60
2018-03-24T08:01:35.937Z,14.57
2018-03-24T08:04:09.478Z,13.83
2018-03-24T08:06:43.303Z,15.00
2018-03-24T08:09:17.037Z,14.33
2018-03-24T08:11:50.550Z,14.13
2018-03-24T08:14:24.246Z,14.83
2018-03-24T08:17:08.654Z,13.73
2018-03-24T08:19:42.222Z,13.90
2018-03-24T08:22:15.863Z,13.10
2018-03-24T08:24:49.511Z,12.00
2018-03-24T08:27:23.049Z,11.07
2018-03-24T08:29:56.729Z,13.03
2018-03-24T08:32:30.478Z,12.10
2018-03-24T08:35:04.082Z,12.33
2018-03-24T08:37:37.842Z,11.80
2018-03-24T08:40:11.557Z,12.23
2018-03-24T08:42:45.200Z,11.80
2018-03-24T08:45:18.787Z,12.20
2018-03-24T08:47:52.609Z,13.17
2018-03-24T08:50:26.336Z,12.30
2018-03-24T08:52:59.906Z,11.90
2018-03-24T08:55:33.510Z,10.03
2018-03-24T08:58:07.208Z,12.23
2018-03-24T09:00:40.947Z,13.17
2018-03-24T09:03:14.654Z,12.33
2018-03-24T09:05:48.291Z,12.03
2018-03-24T09:08:22.078Z,13.10
2018-03-24T09:10:55.934Z,11.53
2018-03-24T09:13:29.767Z,11.97
2018-03-24T09:16:03.481Z,11.47
2018-03-24T09:18:37.211Z,12.83
2018-03-24T09:21:10.868Z,10.77
2018-03-24T09:23:44.470Z,12.50
2018-03-24T09:26:18.099Z,11.90
2018-03-24T09:28:51.747Z,11.37
2018-03-24T09:31:25.476Z,10.87
2018-03-24T09:33:59.196Z,11.47
2018-03-24T09:36:32.847Z,11.57
2018-03-24T09:39:06.410Z,11.37
2018-03-24T09:41:40.175Z,11.43
2018-03-24T09:44:13.768Z,10.67
2018-03-24T09:46:47.498Z,9.43
2018-03-24T09:49:21.091Z,9.40
2018-03-24T09:51:54.780Z,9.93
2018-03-24T09:54:28.724Z,9.23
2018-03-24T09:57:02.462Z,11.10
2018-03-24T09:59:36.230Z,11.03
2018-03-24T10:02:10.054Z,10.27
2018-03-24T10:04:43.796Z,10.27
2018-03-24T10:07:17.499Z,8.83
2018-03-24T10:09:51.222Z,9.80
2018-03-24T10:12:24.967Z,10.10
2018-03-24T10:14:58.799Z,10.43
2018-03-24T10:17:32.506Z,11.03
2018-03-24T10:20:06.162Z,9.53
2018-03-24T10:22:51.703Z,9.03
2018-03-24T10:25:25.382Z,10.23
2018-03-24T10:27:59.175Z,10.20
2018-03-24T10:30:32.946Z,10.17
2018-03-24T10:33:06.556Z,9.63
2018-03-24T10:35:40.137Z,9.27
2018-03-24T10:38:13.896Z,10.40
2018-03-24T10:40:47.448Z,9.23
2018-03-24T10:43:26.845Z,8.53
2018-03-24T10:46:00.543Z,8.57
2018-03-24T10:48:34.217Z,9.40
2018-03-24T10:51:07.838Z,9.33
2018-03-24T10:53:41.546Z,9.00
2018-03-24T10:56:15.133Z,9.03
2018-03-24T10:58:48.943Z,8.27
2018-03-24T11:01:24.943Z,8.80
2018-03-24T11:03:58.557Z,8.00
2018-03-24T11:06:32.272Z,8.13
2018-03-24T11:09:05.927Z,7.27
2018-03-24T11:11:39.471Z,8.03
2018-03-24T11:14:13.067Z,8.83
2018-03-24T11:16:46.818Z,7.73
2018-03-24T11:19:20.608Z,7.17
2018-03-24T11:21:54.351Z,7.90
2018-03-24T11:24:27.895Z,7.33
2018-03-24T11:30:10.330Z,7.90
2018-03-24T11:32:44.078Z,7.63
2018-03-24T11:35:17.752Z,7.67
2018-03-24T11:37:51.498Z,7.33
2018-03-24T11:40:25.163Z,6.87
2018-03-24T11:42:58.834Z,7.83
2018-03-24T11:45:32.558Z,7.60
2018-03-24T11:48:06.299Z,7.93
2018-03-24T11:50:40.099Z,8.30
2018-03-24T11:53:13.903Z,7.70
2018-03-24T11:55:47.734Z,7.23
2018-03-24T11:58:21.289Z,10.43
2018-03-24T12:00:54.878Z,8.30
2018-03-24T12:03:28.630Z,8.03
2018-03-24T12:06:02.414Z,10.23
2018-03-24T12:08:36.218Z,7.83
2018-03-24T12:11:10.059Z,7.43
2018-03-24T12:13:43.897Z,8.23
2018-03-24T12:16:17.606Z,7.80
2018-03-24T12:18:51.213Z,7.73
2018-03-24T12:21:24.864Z,7.33
2018-03-24T12:23:58.532Z,6.47
2018-03-24T12:26:32.173Z,7.80
2018-03-24T12:29:05.926Z,9.40
2018-03-24T12:31:39.598Z,9.27
2018-03-24T12:34:13.263Z,7.97
2018-03-24T12:36:46.926Z,7.47
2018-03-24T12:39:20.535Z,8.47
2018-03-24T12:41:54.263Z,8.80
2018-03-24T12:44:27.858Z,8.87
2018-03-24T12:47:01.613Z,6.43
2018-03-24T12:49:35.198Z,7.53
2018-03-24T12:52:08.996Z,8.00
2018-03-24T12:54:42.582Z,8.00
2018-03-24T12:57:16.331Z,7.90
2018-03-24T12:59:50.066Z,11.50
2018-03-24T13:02:23.784Z,8.60
2018-03-24T13:04:57.491Z,7.93
2018-03-24T13:07:31.223Z,8.80
2018-03-24T13:10:04.908Z,8.90
2018-03-24T13:12:38.506Z,6.97
2018-03-24T13:15:12.147Z,7.83
2018-03-24T13:17:45.847Z,7.43
2018-03-24T13:20:19.510Z,8.03
2018-03-24T13:22:53.111Z,7.67
2018-03-24T13:25:26.786Z,6.27
2018-03-24T13:28:00.627Z,6.73
2018-03-24T13:30:34.188Z,7.17
2018-03-24T13:33:07.967Z,6.70
2018-03-24T13:35:41.623Z,6.50
2018-03-24T13:38:15.180Z,7.00
2018-03-24T13:40:48.879Z,7.30
2018-03-24T13:43:22.594Z,7.07
2018-03-24T13:45:56.382Z,6.90
2018-03-24T13:48:30.026Z,9.87
2018-03-24T13:51:03.759Z,7.07
2018-03-24T13:53:37.455Z,6.97
2018-03-24T13:56:11.298Z,6.10
2018-03-24T13:58:44.896Z,7.30
2018-03-24T14:01:18.523Z,7.07
2018-03-24T14:03:52.086Z,7.30
2018-03-24T14:06:25.709Z,6.63
2018-03-24T14:08:59.432Z,6.97
2018-03-24T14:11:33.152Z,7.40
2018-03-24T14:14:06.739Z,6.97
2018-03-24T14:16:40.502Z,6.93
2018-03-24T14:19:14.252Z,6.90
2018-03-24T14:21:47.967Z,6.77
2018-03-24T14:24:21.719Z,6.60
2018-03-24T14:26:59.467Z,6.77
2018-03-24T14:29:33.266Z,6.03
2018-03-24T14:32:07.031Z,7.30
2018-03-24T14:34:40.911Z,7.43
2018-03-24T14:37:14.539Z,6.37
2018-03-24T14:39:48.155Z,7.43
2018-03-24T14:42:21.734Z,8.03
2018-03-24T14:44:55.490Z,7.20
2018-03-24T14:47:29.288Z,6.87
2018-03-24T14:50:02.987Z,7.73
2018-03-24T14:52:36.823Z,7.93
2018-03-24T14:55:10.415Z,7.83
2018-03-24T14:57:44.093Z,8.00
2018-03-24T15:00:17.655Z,7.40
2018-03-24T15:02:51.262Z,7.40
2018-03-24T15:05:24.991Z,7.50
2018-03-24T15:07:58.582Z,7.20
2018-03-24T15:10:32.160Z,7.70
2018-03-24T15:13:05.994Z,7.53
2018-03-24T15:15:39.683Z,8.87
2018-03-24T15:18:13.413Z,7.70
2018-03-24T15:20:47.259Z,7.90
2018-03-24T15:23:21.175Z,8.00
2018-03-24T15:25:54.743Z,8.47
2018-03-24T15:28:28.459Z,7.60
2018-03-24T15:31:14.238Z,8.53
2018-03-24T15:33:59.859Z,7.53
2018-03-24T15:36:43.500Z,8.27
2018-03-24T15:39:17.170Z,7.73
2018-03-24T15:41:50.790Z,11.60
2018-03-24T15:44:24.559Z,8.40
2018-03-24T15:49:57.803Z,8.20
2018-03-24T15:52:31.514Z,8.23
2018-03-24T15:55:05.099Z,8.40
2018-03-24T15:57:39.126Z,8.03
2018-03-24T16:00:12.787Z,8.30
2018-03-24T16:02:46.455Z,8.57
2018-03-24T16:05:20.146Z,9.03
2018-03-24T16:07:53.745Z,8.47
2018-03-24T16:10:27.467Z,9.53
2018-03-24T16:13:01.070Z,8.83
2018-03-24T16:15:34.716Z,7.70
2018-03-24T16:18:08.270Z,10.40
2018-03-24T16:20:42.004Z,10.60
2018-03-24T16:23:15.663Z,9.30
2018-03-24T16:25:49.335Z,8.80
2018-03-24T16:28:23.045Z,8.80
2018-03-24T16:30:56.841Z,8.70
2018-03-24T16:33:30.571Z,9.30
2018-03-24T16:36:04.282Z,9.20
2018-03-24T16:38:37.874Z,8.90
2018-03-24T16:41:11.634Z,9.63
2018-03-24T16:43:45.375Z,8.67
2018-03-24T16:46:19.123Z,8.77
2018-03-24T16:48:52.892Z,9.20
2018-03-24T16:51:26.676Z,8.80
2018-03-24T16:54:00.310Z,8.90
2018-03-24T16:56:33.918Z,8.03
2018-03-24T16:59:07.705Z,8.70
2018-03-24T17:01:41.443Z,9.33
2018-03-24T17:04:15.124Z,9.27
2018-03-24T17:06:48.889Z,10.93
2018-03-24T17:09:22.660Z,9.67
2018-03-24T17:11:56.424Z,9.60
2018-03-24T17:14:30.079Z,9.10
2018-03-24T17:17:03.819Z,8.97
2018-03-24T17:19:37.483Z,9.00
2018-03-24T17:22:11.017Z,9.63
2018-03-24T17:24:44.711Z,8.90
2018-03-24T17:27:18.467Z,9.30
2018-03-24T17:29:52.184Z,9.33
2018-03-24T17:32:25.748Z,9.73
2018-03-24T17:35:00.060Z,9.70
2018-03-24T17:37:33.802Z,9.47
2018-03-24T17:40:07.622Z,10.00
2018-03-24T17:42:41.256Z,10.00
2018-03-24T17:45:14.870Z,9.07
2018-03-24T17:47:48.410Z,9.40
2018-03-24T17:50:22.026Z,9.60
2018-03-24T17:52:55.675Z,9.27
2018-03-24T17:55:29.345Z,9.77
2018-03-24T17:58:03.052Z,9.77
2018-03-24T18:00:36.652Z,10.57
2018-03-24T18:03:10.475Z,9.07
2018-03-24T18:05:44.238Z,9.93
2018-03-24T18:08:18.078Z,9.67
2018-03-24T18:10:51.874Z,9.80
2018-03-24T18:13:25.523Z,9.93
2018-03-24T18:15:59.203Z,9.83
2018-03-24T18:18:32.730Z,9.90
2018-03-24T18:21:06.409Z,11.37
2018-03-24T18:23:39.950Z,10.90
2018-03-24T18:26:13.678Z,11.03
2018-03-24T18:28:47.330Z,11.20
2018-03-24T18:31:21.155Z,10.37
2018-03-24T18:33:54.694Z,10.47
2018-03-24T18:36:28.344Z,11.03
2018-03-24T18:39:01.941Z,12.93
2018-03-24T18:41:35.698Z,14.97
2018-03-24T18:44:09.357Z,14.83
2018-03-24T18:46:43.074Z,12.43
2018-03-24T18:49:16.708Z,13.23
2018-03-24T18:51:50.527Z,13.17
2018-03-24T18:54:24.310Z,12.17
2018-03-24T18:56:57.990Z,11.83
2018-03-24T18:59:31.577Z,12.40
2018-03-24T19:02:05.126Z,11.67
2018-03-24T19:04:38.790Z,13.37
2018-03-24T19:07:12.391Z,13.17
2018-03-24T19:09:46.077Z,12.47
2018-03-24T19:12:19.796Z,13.27
2018-03-24T19:14:53.317Z,12.90
2018-03-24T19:17:27.057Z,12.87
2018-03-24T19:20:00.732Z,11.67
2018-03-24T19:22:34.346Z,12.30
2018-03-24T19:25:08.205Z,12.03
2018-03-24T19:27:41.869Z,12.73
2018-03-24T19:30:15.546Z,12.87
2018-03-24T19:32:49.215Z,13.67
2018-03-24T19:35:22.822Z,13.23
2018-03-24T19:37:56.428Z,13.37
2018-03-24T19:40:30.218Z,12.97
2018-03-24T19:43:03.777Z,14.37
2018-03-24T19:45:37.438Z,14.47
2018-03-24T19:48:11.038Z,15.53
2018-03-24T19:50:44.752Z,62.37
2018-03-24T19:53:18.393Z,18.83
2018-03-24T19:55:52.070Z,16.90
2018-03-24T19:58:25.755Z,15.80
2018-03-24T20:00:59.470Z,15.43
2018-03-24T20:03:33.154Z,15.63
2018-03-24T20:06:06.702Z,14.60
2018-03-24T20:08:40.357Z,13.77
2018-03-24T20:11:14.028Z,13.23
2018-03-24T20:13:47.748Z,14.90
2018-03-24T20:16:21.243Z,12.77
2018-03-24T20:18:54.977Z,12.87
2018-03-24T20:21:28.574Z,12.70
2018-03-24T20:24:02.562Z,12.83
2018-03-24T20:26:36.258Z,12.47
2018-03-24T20:29:09.899Z,12.60
2018-03-24T20:31:43.470Z,11.70
2018-03-24T20:34:17.126Z,13.40
2018-03-24T20:36:50.757Z,12.37
2018-03-24T20:39:24.401Z,11.97
2018-03-24T20:41:58.012Z,11.83
2018-03-24T20:44:31.598Z,12.53
2018-03-24T20:47:05.090Z,12.30
2018-03-24T20:49:38.670Z,12.07
2018-03-24T20:52:12.222Z,12.10
2018-03-24T20:54:45.833Z,11.20
2018-03-24T20:57:19.498Z,11.07
2018-03-24T20:59:53.154Z,13.00
2018-03-24T21:02:26.682Z,13.37
2018-03-24T21:05:00.326Z,13.00
2018-03-24T21:07:33.866Z,12.50
2018-03-24T21:10:07.478Z,13.50
2018-03-24T21:12:41.126Z,13.50
2018-03-24T21:15:14.705Z,13.43
2018-03-24T21:17:48.438Z,12.50
2018-03-24T21:20:22.142Z,13.53
2018-03-24T21:22:55.796Z,13.50
2018-03-24T21:25:29.422Z,12.43
2018-03-24T21:28:03.021Z,11.60
2018-03-24T21:30:36.612Z,12.40
2018-03-24T21:33:10.138Z,11.53
2018-03-24T21:35:43.685Z,11.17
2018-03-24T21:38:17.241Z,11.70
2018-03-24T21:40:50.830Z,11.23
2018-03-24T21:43:24.594Z,11.50
2018-03-24T21:45:58.150Z,10.40
2018-03-24T21:48:31.778Z,10.60
2018-03-24T21:51:05.362Z,11.90
2018-03-24T21:53:38.936Z,12.00
2018-03-24T21:56:12.570Z,10.90
2018-03-24T21:58:46.171Z,11.90
2018-03-24T22:01:19.899Z,12.53
2018-03-24T22:03:53.376Z,12.53
2018-03-24T22:06:27.058Z,12.03
2018-03-24T22:09:00.691Z,12.23
2018-03-24T22:11:34.339Z,12.47
2018-03-24T22:14:07.862Z,11.93
2018-03-24T22:16:41.458Z,12.77
2018-03-24T22:19:15.266Z,12.83
2018-03-24T22:21:48.973Z,12.13
2018-03-24T22:24:22.626Z,13.17
2018-03-24T22:26:56.266Z,12.93
2018-03-24T22:29:29.818Z,11.37
2018-03-24T22:32:03.364Z,11.37
2018-03-24T22:34:37.033Z,11.50
2018-03-24T22:37:10.757Z,12.30
2018-03-24T22:39:44.380Z,13.00
2018-03-24T22:42:17.957Z,11.53
2018-03-24T22:44:51.469Z,11.80
2018-03-24T22:47:25.146Z,12.13
2018-03-24T22:49:58.717Z,11.57
2018-03-24T22:52:32.392Z,11.50
2018-03-24T22:55:06.178Z,12.07
2018-03-24T22:57:39.802Z,12.27
2018-03-24T23:00:13.480Z,12.13
2018-03-24T23:02:47.064Z,11.47
2018-03-24T23:05:20.838Z,11.70
2018-03-24T23:07:54.538Z,12.37
2018-03-24T23:10:28.143Z,12.10
2018-03-24T23:13:01.861Z,11.80
2018-03-24T23:15:35.415Z,12.00
2018-03-24T23:18:09.098Z,11.30
2018-03-24T23:20:42.677Z,12.43
2018-03-24T23:23:16.279Z,11.60
2018-03-24T23:25:49.846Z,12.03
2018-03-24T23:28:23.490Z,11.93
2018-03-24T23:30:57.102Z,12.50
2018-03-24T23:33:30.705Z,10.80
2018-03-24T23:36:04.277Z,11.87
2018-03-24T23:38:37.889Z,11.73
2018-03-24T23:41:11.497Z,11.87
2018-03-24T23:43:45.092Z,12.90
2018-03-24T23:46:18.658Z,12.70
2018-03-24T23:48:52.386Z,12.60
2018-03-24T23:51:26.037Z,13.03
2018-03-24T23:53:59.644Z,12.53
2018-03-24T23:56:33.249Z,12.23
2018-03-24T23:59:06.833Z,10.90
